Oban — PDWJ — position and weather

sailwx.info

Track history (hours):
 
Tides and Currents Weather Stations Pressure Air Temp Water Temp Dewpoint Dewpoint Depression Visibility Wind Speed Wind Dir Waves Ship Positions

Oban

Last reported at 2017-May-08 09:38 UTC. Time now 2017-May-23 04:54 UTC.
Position N 54°05' E 009°19'.
Warning: this ship's position is 14 days out of date.

Length 39 m; draft 2.8 m.

Type: Sailing vessel. MMSI: 246085000.

Date/timePositionNaut miles runAvg speedWind from/ knotsBaromVisibWave heightAir tempDewpointWater temp
2017-May-08 09:38N 54°05' E 009°19'1 6.5
2017-May-08 09:31N 54°04' E 009°19'3 6.3
2017-May-08 09:00N 54°01' E 009°18'3 6.1
2017-May-08 08:30N 53°58' E 009°16'3 6.2
2017-May-08 08:00N 53°56' E 009°13'3 6.3
2017-May-08 07:31N 53°54' E 009°09'0 0.4
2017-May-08 07:01N 53°53' E 009°09'1 1.9
2017-May-08 06:31N 53°53' E 009°10'2 3.5
2017-May-08 06:01N 53°53' E 009°13'4 8.8
2017-May-08 05:30N 53°51' E 009°20'4 8.8
2017-May-08 05:00N 53°47' E 009°23'5 9.3
2017-May-08 04:31N 53°43' E 009°28'5 9.2
2017-May-08 04:00N 53°39' E 009°31'5 9.1
2017-May-08 03:30N 53°36' E 009°36'4 8.6
2017-May-08 03:00N 53°34' E 009°43'4 8.5
2017-May-08 02:30N 53°33' E 009°50'2 4.4
2017-May-08 02:00N 53°32' E 009°53'0 0.0
2017-May-08 01:30N 53°32' E 009°53'0 0.0
2017-May-08 01:00N 53°32' E 009°53'0 0.0
2017-May-08 00:30N 53°32' E 009°53'0 0.0
2017-May-08 00:00N 53°32' E 009°53'0 0.0
2017-May-07 23:30N 53°32' E 009°53'0 0.0
2017-May-07 23:00N 53°32' E 009°53'0 0.0
2017-May-07 22:30N 53°32' E 009°53'0 0.0
2017-May-07 22:00N 53°32' E 009°53'0 0.0
2017-May-07 21:30N 53°32' E 009°53'0 0.0
2017-May-07 21:00N 53°32' E 009°53'0 0.0
2017-May-07 20:30N 53°32' E 009°53'0 0.0
2017-May-07 20:00N 53°32' E 009°53'0 0.0
2017-May-07 19:30N 53°32' E 009°53'0 0.0
2017-May-07 19:00N 53°32' E 009°53'0 0.0
2017-May-07 18:30N 53°32' E 009°53'0 0.0
2017-May-07 18:00N 53°32' E 009°53'0 0.0
2017-May-07 17:30N 53°32' E 009°53'0 0.5
2017-May-07 17:00N 53°32' E 009°53'3 5.2
2017-May-07 16:30N 53°33' E 009°57'2 3.5
2017-May-07 16:00N 53°32' E 010°00'0 0.2
2017-May-07 15:30N 53°32' E 010°00'0 0.2
2017-May-07 15:00N 53°32' E 010°00'1 2.3
2017-May-07 14:30N 53°33' E 009°58'5 4.9
2017-May-07 13:30N 53°33' E 009°50'1 1.8
2017-May-07 13:00N 53°33' E 009°49'2 4.2
2017-May-07 12:30N 53°33' E 009°52'1 1.8
2017-May-07 12:00N 53°32' E 009°53'0 0.0
2017-May-07 11:30N 53°32' E 009°53'0 0.0
2017-May-07 11:00N 53°32' E 009°53'0 0.0
2017-May-07 10:30N 53°32' E 009°53'0 0.0
2017-May-07 10:00N 53°32' E 009°53'0 0.0
2017-May-07 09:30N 53°32' E 009°53'0 0.0
2017-May-07 09:00N 53°32' E 009°53'0 0.0
2017-May-07 08:30N 53°32' E 009°53'0 0.0
2017-May-07 08:00N 53°32' E 009°53'0 0.0
2017-May-07 07:30N 53°32' E 009°53'0 0.0
2017-May-07 07:00N 53°32' E 009°53'0 0.0
2017-May-07 06:30N 53°32' E 009°53'0 0.0
2017-May-07 06:00N 53°32' E 009°53'0 0.0
2017-May-07 05:30N 53°32' E 009°53'0 0.0
2017-May-07 05:00N 53°32' E 009°53'0 0.0
2017-May-07 04:30N 53°32' E 009°53'0 0.0
2017-May-07 04:00N 53°32' E 009°53'0 0.0
2017-May-07 03:30N 53°32' E 009°53'0 0.0
2017-May-07 03:00N 53°32' E 009°53'0 0.0
2017-May-07 02:30N 53°32' E 009°53'0 0.0
2017-May-07 02:00N 53°32' E 009°53'0 0.0
2017-May-07 01:30N 53°32' E 009°53'0 0.0
2017-May-07 01:00N 53°32' E 009°53'0 0.0
2017-May-07 00:30N 53°32' E 009°53'0 0.0
2017-May-07 00:00N 53°32' E 009°53'0 0.0
2017-May-06 23:30N 53°32' E 009°53'0 0.0
2017-May-06 23:00N 53°32' E 009°53'1 1.2
2017-May-06 22:30N 53°33' E 009°53'2 4.7
2017-May-06 22:00N 53°33' E 009°57'0 0.4
2017-May-06 21:30N 53°33' E 009°58'1 1.5
2017-May-06 21:00N 53°32' E 009°59'0 0.0
2017-May-06 20:30N 53°32' E 009°59'0 0.0
2017-May-06 20:00N 53°32' E 009°59'1 1.5
2017-May-06 19:30N 53°33' E 009°57'3 5.4
2017-May-06 19:00N 53°32' E 009°53'1 1.0
2017-May-06 18:30N 53°33' E 009°52'3 5.3
2017-May-06 18:00N 53°33' E 009°57'0 0.7
2017-May-06 17:30N 53°33' E 009°57'0 0.7
2017-May-06 17:00N 53°32' E 009°57'2 3.6
2017-May-06 16:30N 53°32' E 009°54'1 1.1
2017-May-06 16:00N 53°32' E 009°53'1 1.8
2017-May-06 15:30N 53°33' E 009°54'2 3.8
2017-May-06 15:00N 53°33' E 009°51'1 1.0
2017-May-06 14:00N 53°33' E 009°50'3 5.6
2017-May-06 13:30N 53°33' E 009°54'2 3.5
2017-May-06 13:00N 53°33' E 009°57'2 3.8
2017-May-06 12:30N 53°32' E 009°54'1 1.3
2017-May-06 12:00N 53°32' E 009°53'0 0.0
2017-May-06 11:30N 53°32' E 009°53'1 2.4
2017-May-06 11:00N 53°33' E 009°51'1 1.9
2017-May-06 10:30N 53°33' E 009°53'1 2.9
2017-May-06 10:00N 53°33' E 009°55'2 3.8
2017-May-06 09:30N 53°32' E 009°59'2 4.0
2017-May-06 09:00N 53°32' E 009°55'1 2.7
2017-May-06 08:30N 53°32' E 009°53'0 0.0
2017-May-06 08:00N 53°32' E 009°53'0 0.0
2017-May-06 07:30N 53°32' E 009°53'0 0.0
2017-May-06 07:00N 53°32' E 009°53'0 0.0
2017-May-06 06:30N 53°32' E 009°53'0 0.0
2017-May-06 06:00N 53°32' E 009°53'0 0.0
2017-May-06 05:30N 53°32' E 009°53'0 0.0
2017-May-06 05:00N 53°32' E 009°53'0 0.0
2017-May-06 04:30N 53°32' E 009°53'0 0.0
2017-May-06 04:00N 53°32' E 009°53'0 0.0
2017-May-06 03:30N 53°32' E 009°53'0 0.0
2017-May-06 03:00N 53°32' E 009°53'0 0.0
2017-May-06 02:30N 53°32' E 009°53'0 0.0
2017-May-06 02:00N 53°32' E 009°53'0 0.0
2017-May-06 01:30N 53°32' E 009°53'0 0.0
2017-May-06 01:00N 53°32' E 009°53'0 0.0
2017-May-06 00:30N 53°32' E 009°53'0 0.0
2017-May-06 00:00N 53°32' E 009°53'0 0.0
2017-May-05 23:30N 53°32' E 009°53'0 0.0
2017-May-05 23:00N 53°32' E 009°53'0 0.0
2017-May-05 22:30N 53°32' E 009°53'0 0.0
2017-May-05 22:00N 53°32' E 009°53'0 0.0
2017-May-05 21:30N 53°32' E 009°53'0 0.0
2017-May-05 21:00N 53°32' E 009°53'0 0.0
2017-May-05 20:30N 53°32' E 009°53'0 0.0
2017-May-05 20:00N 53°32' E 009°53'0 0.0
2017-May-05 19:30N 53°32' E 009°53'0 0.0
2017-May-05 19:00N 53°32' E 009°53'1 1.4
2017-May-05 18:30N 53°33' E 009°53'2 4.8
2017-May-05 18:00N 53°33' E 009°57'1 1.4
2017-May-05 17:30N 53°33' E 009°58'3 5.9
2017-May-05 17:01N 53°32' E 009°53'0 1.0
2017-May-05 16:30N 53°32' E 009°53'0 0.0
2017-May-05 16:01N 53°32' E 009°53'0 0.0
2017-May-05 15:30N 53°32' E 009°53'1 2.0
2017-May-05 15:01N 53°33' E 009°52'3 3.3
2017-May-05 14:00N 53°34' E 009°46'1 1.3
2017-May-05 13:31N 53°34' E 009°45'0 0.5
2017-May-05 13:01N 53°34' E 009°46'2 3.7
2017-May-05 12:31N 53°33' E 009°49'2 3.5
2017-May-05 12:01N 53°33' E 009°51'2 4.4
2017-May-05 11:31N 53°33' E 009°55'1 2.8
2017-May-05 11:00N 53°33' E 009°58'0 0.8
2017-May-05 10:31N 53°33' E 009°57'2 4.9
2017-May-05 10:01N 53°32' E 009°53'0 0.9
2017-May-05 09:26N 53°32' E 009°53'0 0.0
2017-May-05 08:59N 53°32' E 009°53'0 0.0
2017-May-05 08:29N 53°32' E 009°53'1 1.5
2017-May-05 08:00N 53°33' E 009°54'1 2.0
2017-May-05 07:30N 53°33' E 009°55'0 0.0
2017-May-05 07:00N 53°33' E 009°55'0 0.0
2017-May-05 06:29N 53°33' E 009°55'0 0.0
2017-May-05 05:56N 53°33' E 009°55'0 0.0
2017-May-05 05:29N 53°33' E 009°55'0 0.0
2017-May-05 04:59N 53°33' E 009°55'0 0.0
2017-May-05 04:29N 53°33' E 009°55'0 0.0
2017-May-05 03:59N 53°33' E 009°55'0 0.0
2017-May-05 03:26N 53°33' E 009°55'0 0.0
2017-May-05 02:59N 53°33' E 009°55'0 0.0
2017-May-05 02:29N 53°33' E 009°55'0 0.0
2017-May-05 01:59N 53°33' E 009°55'0 0.0
2017-May-05 01:29N 53°33' E 009°55'0 0.0
2017-May-05 00:59N 53°33' E 009°55'0 0.0
2017-May-05 00:29N 53°33' E 009°55'0 0.0
2017-May-04 23:59N 53°33' E 009°55'0 0.0
2017-May-04 23:29N 53°33' E 009°55'0 0.0
2017-May-04 22:50N 53°33' E 009°55'0 0.0
2017-May-04 22:26N 53°33' E 009°55'0 0.0
2017-May-04 21:53N 53°33' E 009°55'0 0.0
2017-May-04 21:26N 53°33' E 009°55'0 0.0
2017-May-04 20:59N 53°33' E 009°55'0 0.0
2017-May-04 20:29N 53°33' E 009°55'0 0.0
2017-May-04 19:59N 53°33' E 009°55'0 0.0
2017-May-04 19:28N 53°33' E 009°55'0 0.0
2017-May-04 18:58N 53°33' E 009°55'0 0.0
2017-May-04 18:25N 53°33' E 009°55'0 0.0
2017-May-04 17:55N 53°33' E 009°55'0 0.0
2017-May-04 17:28N 53°33' E 009°55'0 0.0
2017-May-04 16:58N 53°33' E 009°55'0 0.0
2017-May-04 16:28N 53°33' E 009°55'0 0.0
2017-May-04 15:52N 53°33' E 009°55'0 0.0
2017-May-04 15:28N 53°33' E 009°55'0 0.0
2017-May-04 14:58N 53°33' E 009°55'0 0.0
2017-May-04 13:58N 53°33' E 009°55'0 0.0
2017-May-04 13:28N 53°33' E 009°55'0 0.0
2017-May-04 12:55N 53°33' E 009°55'0 0.0
2017-May-04 12:28N 53°33' E 009°55'0 0.0
2017-May-04 11:58N 53°33' E 009°55'0 0.0
2017-May-04 11:28N 53°33' E 009°55'0 0.0
2017-May-04 10:55N 53°33' E 009°55'0 0.0
2017-May-04 10:28N 53°33' E 009°55'0 0.2
2017-May-04 10:01N 53°33' E 009°55'0 0.2
2017-May-04 09:31N 53°33' E 009°55'2 3.9
2017-May-04 09:01N 53°33' E 009°52'4 7.5
2017-May-04 08:31N 53°34' E 009°46'4 7.4
2017-May-04 08:01N 53°34' E 009°40'4 7.7
2017-May-04 07:30N 53°36' E 009°34'4 8.2
2017-May-04 07:01N 53°40' E 009°31'4 8.9
2017-May-04 06:30N 53°44' E 009°27'4 8.6
2017-May-04 06:01N 53°47' E 009°23'4 8.7
2017-May-04 05:31N 53°51' E 009°19'4 8.9
2017-May-04 05:00N 53°53' E 009°12'2 4.0
2017-May-04 04:30N 53°54' E 009°09'1 1.2
2017-May-04 03:57N 53°54' E 009°09'0 0.0
2017-May-04 03:30N 53°54' E 009°09'0 0.0
2017-May-04 02:50N 53°54' E 009°09'0 0.0
2017-May-04 02:23N 53°54' E 009°09'0 0.0
2017-May-04 01:59N 53°54' E 009°09'0 0.0
2017-May-04 01:29N 53°54' E 009°09'0 0.0
2017-May-04 00:53N 53°54' E 009°09'0 0.0
2017-May-04 00:29N 53°54' E 009°09'0 0.0
2017-May-03 23:59N 53°54' E 009°09'0 0.0
2017-May-03 23:29N 53°54' E 009°09'0 0.0
2017-May-03 22:59N 53°54' E 009°09'0 0.0
2017-May-03 22:29N 53°54' E 009°09'0 0.0
2017-May-03 21:53N 53°54' E 009°09'0 0.0
2017-May-03 21:29N 53°54' E 009°09'0 0.0
2017-May-03 20:59N 53°54' E 009°09'0 0.0
2017-May-03 20:29N 53°54' E 009°09'0 0.0
2017-May-03 19:59N 53°54' E 009°09'0 0.0
2017-May-03 19:29N 53°54' E 009°09'0 0.0
2017-May-03 18:59N 53°54' E 009°09'0 0.0
2017-May-03 18:26N 53°54' E 009°09'0 0.0
2017-May-03 17:59N 53°54' E 009°09'0 0.0
2017-May-03 17:29N 53°54' E 009°09'0 0.0
2017-May-03 16:53N 53°54' E 009°09'0 0.0
2017-May-03 16:26N 53°54' E 009°09'0 0.0
2017-May-03 15:56N 53°54' E 009°09'0 0.5
2017-May-03 15:30N 53°54' E 009°10'3 6.5
2017-May-03 15:00N 53°57' E 009°14'7 6.8
2017-May-03 14:00N 54°03' E 009°18'48 0.9
2017-May-01 10:16N 54°31' E 010°24'3 8.4
2017-May-01 09:57N 54°34' E 010°27'4 8.6
2017-May-01 09:30N 54°37' E 010°30'4 8.4
2017-May-01 09:00N 54°41' E 010°33'4 8.3
2017-May-01 08:30N 54°44' E 010°38'2 3.9
2017-May-01 08:00N 54°45' E 010°40'0 0.0
2017-May-01 07:31N 54°45' E 010°40'0 0.0
2017-May-01 07:00N 54°45' E 010°40'0 0.0
2017-May-01 06:30N 54°45' E 010°40'0 0.0
2017-May-01 06:01N 54°45' E 010°40'0 0.0
2017-May-01 05:31N 54°45' E 010°40'0 0.0
2017-May-01 05:01N 54°45' E 010°40'0 0.0
2017-May-01 04:30N 54°45' E 010°40'0 0.0
2017-May-01 04:00N 54°45' E 010°40'0 0.0
2017-May-01 03:31N 54°45' E 010°40'0 0.0
2017-May-01 03:00N 54°45' E 010°40'0 0.0
2017-May-01 02:30N 54°45' E 010°40'0 0.0
2017-May-01 02:00N 54°45' E 010°40'0 0.0
2017-May-01 01:30N 54°45' E 010°40'0 0.0
2017-May-01 01:00N 54°45' E 010°40'0 0.0
2017-May-01 00:31N 54°45' E 010°40'0 0.0
2017-May-01 00:00N 54°45' E 010°40'0 0.0
2017-Apr-30 23:30N 54°45' E 010°40'0 0.0
2017-Apr-30 23:01N 54°45' E 010°40'0 0.0
2017-Apr-30 22:31N 54°45' E 010°40'0 0.0
2017-Apr-30 22:01N 54°45' E 010°40'0 0.0
2017-Apr-30 21:31N 54°45' E 010°40'0 0.0
2017-Apr-30 21:00N 54°45' E 010°40'0 0.0
2017-Apr-30 20:30N 54°45' E 010°40'0 0.0
2017-Apr-30 20:01N 54°45' E 010°40'0 0.0
2017-Apr-30 19:30N 54°45' E 010°40'0 0.0
2017-Apr-30 19:00N 54°45' E 010°40'0 0.0
2017-Apr-30 18:30N 54°45' E 010°40'0 0.0
2017-Apr-30 18:00N 54°45' E 010°40'0 0.0
2017-Apr-30 17:30N 54°45' E 010°40'0 0.0
2017-Apr-30 17:00N 54°45' E 010°40'0 0.0
2017-Apr-30 16:30N 54°45' E 010°40'0 0.0
2017-Apr-30 16:00N 54°45' E 010°40'0 0.0
2017-Apr-30 15:30N 54°45' E 010°40'0 0.0
2017-Apr-30 15:01N 54°45' E 010°40'0 0.0
2017-Apr-30 14:31N 54°45' E 010°40'0 0.0
2017-Apr-30 13:30N 54°45' E 010°40'0 0.0
2017-Apr-30 13:01N 54°45' E 010°40'1 1.1
2017-Apr-30 12:31N 54°46' E 010°40'3 5.3
2017-Apr-30 12:01N 54°43' E 010°40'4 7.7
2017-Apr-30 11:31N 54°40' E 010°43'4 8.2
2017-Apr-30 11:01N 54°36' E 010°47'3 6.4
2017-Apr-30 10:31N 54°33' E 010°49'3 5.8
2017-Apr-30 10:00N 54°31' E 010°52'3 5.5
2017-Apr-30 09:30N 54°29' E 010°55'3 5.9
2017-Apr-30 09:00N 54°26' E 010°58'3 6.0
2017-Apr-30 08:30N 54°24' E 011°01'1 2.9
2017-Apr-30 08:00N 54°22' E 011°01'1 1.8
2017-Apr-30 07:30N 54°22' E 010°59'0 0.0
2017-Apr-30 07:00N 54°22' E 010°59'0 0.0
2017-Apr-30 06:30N 54°22' E 010°59'0 0.0
2017-Apr-30 06:00N 54°22' E 010°59'0 0.0
2017-Apr-30 05:31N 54°22' E 010°59'0 0.0
2017-Apr-30 04:55N 54°22' E 010°59'0 0.0
2017-Apr-30 04:26N 54°22' E 010°59'0 0.0
2017-Apr-30 03:59N 54°22' E 010°59'0 0.0
2017-Apr-30 03:29N 54°22' E 010°59'0 0.0
2017-Apr-30 03:00N 54°22' E 010°59'0 0.0
2017-Apr-30 02:26N 54°22' E 010°59'0 0.0
2017-Apr-30 02:01N 54°22' E 010°59'0 0.0
2017-Apr-30 01:29N 54°22' E 010°59'0 0.0
2017-Apr-30 01:00N 54°22' E 010°59'0 0.0
2017-Apr-30 00:31N 54°22' E 010°59'0 0.0
2017-Apr-29 23:59N 54°22' E 010°59'0 0.0
2017-Apr-29 23:30N 54°22' E 010°59'0 0.0
2017-Apr-29 22:59N 54°22' E 010°59'0 0.0
2017-Apr-29 22:17N 54°22' E 010°59'0 0.0
2017-Apr-29 21:54N 54°22' E 010°59'0 0.0
2017-Apr-29 21:30N 54°22' E 010°59'0 0.0
2017-Apr-29 19:45N 54°22' E 010°59'0 0.0
2017-Apr-29 19:28N 54°22' E 010°59'0 0.0
2017-Apr-29 18:52N 54°22' E 010°59'0 0.0
2017-Apr-29 18:30N 54°22' E 010°59'0 0.0
2017-Apr-29 18:00N 54°22' E 010°59'0 0.0
2017-Apr-29 17:28N 54°22' E 010°59'0 0.0
2017-Apr-29 16:44N 54°22' E 010°59'0 0.0
2017-Apr-29 16:11N 54°22' E 010°59'0 0.1
2017-Apr-29 15:58N 54°22' E 010°59'2 3.6
2017-Apr-29 15:30N 54°23' E 011°02'3 6.5
2017-Apr-29 14:59N 54°25' E 010°57'3 6.5
2017-Apr-29 14:30N 54°26' E 010°52'7 6.5
2017-Apr-29 13:22N 54°27' E 010°39'  
Track history (hours):
 
Tides and Currents Weather Stations Pressure Air Temp Water Temp Dewpoint Dewpoint Depression Visibility Wind Speed Wind Dir Waves Ship Positions

Oban

Last reported at 2017-May-08 09:38 UTC. Time now 2017-May-23 04:54 UTC.
Position N 54°05' E 009°19'.
Warning: this ship's position is 14 days out of date.

Length 39 m; draft 2.8 m.

Type: Sailing vessel. MMSI: 246085000.

Date/timePositionNaut miles runAvg speedWind from/ knotsBaromVisibWave heightAir tempDewpointWater temp
2017-May-08 09:38N 54°05' E 009°19'1 6.5
2017-May-08 09:31N 54°04' E 009°19'3 6.3
2017-May-08 09:00N 54°01' E 009°18'3 6.1
2017-May-08 08:30N 53°58' E 009°16'3 6.2
2017-May-08 08:00N 53°56' E 009°13'3 6.3
2017-May-08 07:31N 53°54' E 009°09'0 0.4
2017-May-08 07:01N 53°53' E 009°09'1 1.9
2017-May-08 06:31N 53°53' E 009°10'2 3.5
2017-May-08 06:01N 53°53' E 009°13'4 8.8
2017-May-08 05:30N 53°51' E 009°20'4 8.8
2017-May-08 05:00N 53°47' E 009°23'5 9.3
2017-May-08 04:31N 53°43' E 009°28'5 9.2
2017-May-08 04:00N 53°39' E 009°31'5 9.1
2017-May-08 03:30N 53°36' E 009°36'4 8.6
2017-May-08 03:00N 53°34' E 009°43'4 8.5
2017-May-08 02:30N 53°33' E 009°50'2 4.4
2017-May-08 02:00N 53°32' E 009°53'0 0.0
2017-May-08 01:30N 53°32' E 009°53'0 0.0
2017-May-08 01:00N 53°32' E 009°53'0 0.0
2017-May-08 00:30N 53°32' E 009°53'0 0.0
2017-May-08 00:00N 53°32' E 009°53'0 0.0
2017-May-07 23:30N 53°32' E 009°53'0 0.0
2017-May-07 23:00N 53°32' E 009°53'0 0.0
2017-May-07 22:30N 53°32' E 009°53'0 0.0
2017-May-07 22:00N 53°32' E 009°53'0 0.0
2017-May-07 21:30N 53°32' E 009°53'0 0.0
2017-May-07 21:00N 53°32' E 009°53'0 0.0
2017-May-07 20:30N 53°32' E 009°53'0 0.0
2017-May-07 20:00N 53°32' E 009°53'0 0.0
2017-May-07 19:30N 53°32' E 009°53'0 0.0
2017-May-07 19:00N 53°32' E 009°53'0 0.0
2017-May-07 18:30N 53°32' E 009°53'0 0.0
2017-May-07 18:00N 53°32' E 009°53'0 0.0
2017-May-07 17:30N 53°32' E 009°53'0 0.5
2017-May-07 17:00N 53°32' E 009°53'3 5.2
2017-May-07 16:30N 53°33' E 009°57'2 3.5
2017-May-07 16:00N 53°32' E 010°00'0 0.2
2017-May-07 15:30N 53°32' E 010°00'0 0.2
2017-May-07 15:00N 53°32' E 010°00'1 2.3
2017-May-07 14:30N 53°33' E 009°58'5 4.9
2017-May-07 13:30N 53°33' E 009°50'1 1.8
2017-May-07 13:00N 53°33' E 009°49'2 4.2
2017-May-07 12:30N 53°33' E 009°52'1 1.8
2017-May-07 12:00N 53°32' E 009°53'0 0.0
2017-May-07 11:30N 53°32' E 009°53'0 0.0
2017-May-07 11:00N 53°32' E 009°53'0 0.0
2017-May-07 10:30N 53°32' E 009°53'0 0.0
2017-May-07 10:00N 53°32' E 009°53'0 0.0
2017-May-07 09:30N 53°32' E 009°53'0 0.0
2017-May-07 09:00N 53°32' E 009°53'0 0.0
2017-May-07 08:30N 53°32' E 009°53'0 0.0
2017-May-07 08:00N 53°32' E 009°53'0 0.0
2017-May-07 07:30N 53°32' E 009°53'0 0.0
2017-May-07 07:00N 53°32' E 009°53'0 0.0
2017-May-07 06:30N 53°32' E 009°53'0 0.0
2017-May-07 06:00N 53°32' E 009°53'0 0.0
2017-May-07 05:30N 53°32' E 009°53'0 0.0
2017-May-07 05:00N 53°32' E 009°53'0 0.0
2017-May-07 04:30N 53°32' E 009°53'0 0.0
2017-May-07 04:00N 53°32' E 009°53'0 0.0
2017-May-07 03:30N 53°32' E 009°53'0 0.0
2017-May-07 03:00N 53°32' E 009°53'0 0.0
2017-May-07 02:30N 53°32' E 009°53'0 0.0
2017-May-07 02:00N 53°32' E 009°53'0 0.0
2017-May-07 01:30N 53°32' E 009°53'0 0.0
2017-May-07 01:00N 53°32' E 009°53'0 0.0
2017-May-07 00:30N 53°32' E 009°53'0 0.0
2017-May-07 00:00N 53°32' E 009°53'0 0.0
2017-May-06 23:30N 53°32' E 009°53'0 0.0
2017-May-06 23:00N 53°32' E 009°53'1 1.2
2017-May-06 22:30N 53°33' E 009°53'2 4.7
2017-May-06 22:00N 53°33' E 009°57'0 0.4
2017-May-06 21:30N 53°33' E 009°58'1 1.5
2017-May-06 21:00N 53°32' E 009°59'0 0.0
2017-May-06 20:30N 53°32' E 009°59'0 0.0
2017-May-06 20:00N 53°32' E 009°59'1 1.5
2017-May-06 19:30N 53°33' E 009°57'3 5.4
2017-May-06 19:00N 53°32' E 009°53'1 1.0
2017-May-06 18:30N 53°33' E 009°52'3 5.3
2017-May-06 18:00N 53°33' E 009°57'0 0.7
2017-May-06 17:30N 53°33' E 009°57'0 0.7
2017-May-06 17:00N 53°32' E 009°57'2 3.6
2017-May-06 16:30N 53°32' E 009°54'1 1.1
2017-May-06 16:00N 53°32' E 009°53'1 1.8
2017-May-06 15:30N 53°33' E 009°54'2 3.8
2017-May-06 15:00N 53°33' E 009°51'1 1.0
2017-May-06 14:00N 53°33' E 009°50'3 5.6
2017-May-06 13:30N 53°33' E 009°54'2 3.5
2017-May-06 13:00N 53°33' E 009°57'2 3.8
2017-May-06 12:30N 53°32' E 009°54'1 1.3
2017-May-06 12:00N 53°32' E 009°53'0 0.0
2017-May-06 11:30N 53°32' E 009°53'1 2.4
2017-May-06 11:00N 53°33' E 009°51'1 1.9
2017-May-06 10:30N 53°33' E 009°53'1 2.9
2017-May-06 10:00N 53°33' E 009°55'2 3.8
2017-May-06 09:30N 53°32' E 009°59'2 4.0
2017-May-06 09:00N 53°32' E 009°55'1 2.7
2017-May-06 08:30N 53°32' E 009°53'0 0.0
2017-May-06 08:00N 53°32' E 009°53'0 0.0
2017-May-06 07:30N 53°32' E 009°53'0 0.0
2017-May-06 07:00N 53°32' E 009°53'0 0.0
2017-May-06 06:30N 53°32' E 009°53'0 0.0
2017-May-06 06:00N 53°32' E 009°53'0 0.0
2017-May-06 05:30N 53°32' E 009°53'0 0.0
2017-May-06 05:00N 53°32' E 009°53'0 0.0
2017-May-06 04:30N 53°32' E 009°53'0 0.0
2017-May-06 04:00N 53°32' E 009°53'0 0.0
2017-May-06 03:30N 53°32' E 009°53'0 0.0
2017-May-06 03:00N 53°32' E 009°53'0 0.0
2017-May-06 02:30N 53°32' E 009°53'0 0.0
2017-May-06 02:00N 53°32' E 009°53'0 0.0
2017-May-06 01:30N 53°32' E 009°53'0 0.0
2017-May-06 01:00N 53°32' E 009°53'0 0.0
2017-May-06 00:30N 53°32' E 009°53'0 0.0
2017-May-06 00:00N 53°32' E 009°53'0 0.0
2017-May-05 23:30N 53°32' E 009°53'0 0.0
2017-May-05 23:00N 53°32' E 009°53'0 0.0
2017-May-05 22:30N 53°32' E 009°53'0 0.0
2017-May-05 22:00N 53°32' E 009°53'0 0.0
2017-May-05 21:30N 53°32' E 009°53'0 0.0
2017-May-05 21:00N 53°32' E 009°53'0 0.0
2017-May-05 20:30N 53°32' E 009°53'0 0.0
2017-May-05 20:00N 53°32' E 009°53'0 0.0
2017-May-05 19:30N 53°32' E 009°53'0 0.0
2017-May-05 19:00N 53°32' E 009°53'1 1.4
2017-May-05 18:30N 53°33' E 009°53'2 4.8
2017-May-05 18:00N 53°33' E 009°57'1 1.4
2017-May-05 17:30N 53°33' E 009°58'3 5.9
2017-May-05 17:01N 53°32' E 009°53'0 1.0
2017-May-05 16:30N 53°32' E 009°53'0 0.0
2017-May-05 16:01N 53°32' E 009°53'0 0.0
2017-May-05 15:30N 53°32' E 009°53'1 2.0
2017-May-05 15:01N 53°33' E 009°52'3 3.3
2017-May-05 14:00N 53°34' E 009°46'1 1.3
2017-May-05 13:31N 53°34' E 009°45'0 0.5
2017-May-05 13:01N 53°34' E 009°46'2 3.7
2017-May-05 12:31N 53°33' E 009°49'2 3.5
2017-May-05 12:01N 53°33' E 009°51'2 4.4
2017-May-05 11:31N 53°33' E 009°55'1 2.8
2017-May-05 11:00N 53°33' E 009°58'0 0.8
2017-May-05 10:31N 53°33' E 009°57'2 4.9
2017-May-05 10:01N 53°32' E 009°53'0 0.9
2017-May-05 09:26N 53°32' E 009°53'0 0.0
2017-May-05 08:59N 53°32' E 009°53'0 0.0
2017-May-05 08:29N 53°32' E 009°53'1 1.5
2017-May-05 08:00N 53°33' E 009°54'1 2.0
2017-May-05 07:30N 53°33' E 009°55'0 0.0
2017-May-05 07:00N 53°33' E 009°55'0 0.0
2017-May-05 06:29N 53°33' E 009°55'0 0.0
2017-May-05 05:56N 53°33' E 009°55'0 0.0
2017-May-05 05:29N 53°33' E 009°55'0 0.0
2017-May-05 04:59N 53°33' E 009°55'0 0.0
2017-May-05 04:29N 53°33' E 009°55'0 0.0
2017-May-05 03:59N 53°33' E 009°55'0 0.0
2017-May-05 03:26N 53°33' E 009°55'0 0.0
2017-May-05 02:59N 53°33' E 009°55'0 0.0
2017-May-05 02:29N 53°33' E 009°55'0 0.0
2017-May-05 01:59N 53°33' E 009°55'0 0.0
2017-May-05 01:29N 53°33' E 009°55'0 0.0
2017-May-05 00:59N 53°33' E 009°55'0 0.0
2017-May-05 00:29N 53°33' E 009°55'0 0.0
2017-May-04 23:59N 53°33' E 009°55'0 0.0
2017-May-04 23:29N 53°33' E 009°55'0 0.0
2017-May-04 22:50N 53°33' E 009°55'0 0.0
2017-May-04 22:26N 53°33' E 009°55'0 0.0
2017-May-04 21:53N 53°33' E 009°55'0 0.0
2017-May-04 21:26N 53°33' E 009°55'0 0.0
2017-May-04 20:59N 53°33' E 009°55'0 0.0
2017-May-04 20:29N 53°33' E 009°55'0 0.0
2017-May-04 19:59N 53°33' E 009°55'0 0.0
2017-May-04 19:28N 53°33' E 009°55'0 0.0
2017-May-04 18:58N 53°33' E 009°55'0 0.0
2017-May-04 18:25N 53°33' E 009°55'0 0.0
2017-May-04 17:55N 53°33' E 009°55'0 0.0
2017-May-04 17:28N 53°33' E 009°55'0 0.0
2017-May-04 16:58N 53°33' E 009°55'0 0.0
2017-May-04 16:28N 53°33' E 009°55'0 0.0
2017-May-04 15:52N 53°33' E 009°55'0 0.0
2017-May-04 15:28N 53°33' E 009°55'0 0.0
2017-May-04 14:58N 53°33' E 009°55'0 0.0
2017-May-04 13:58N 53°33' E 009°55'0 0.0
2017-May-04 13:28N 53°33' E 009°55'0 0.0
2017-May-04 12:55N 53°33' E 009°55'0 0.0
2017-May-04 12:28N 53°33' E 009°55'0 0.0
2017-May-04 11:58N 53°33' E 009°55'0 0.0
2017-May-04 11:28N 53°33' E 009°55'0 0.0
2017-May-04 10:55N 53°33' E 009°55'0 0.0
2017-May-04 10:28N 53°33' E 009°55'0 0.2
2017-May-04 10:01N 53°33' E 009°55'0 0.2
2017-May-04 09:31N 53°33' E 009°55'2 3.9
2017-May-04 09:01N 53°33' E 009°52'4 7.5
2017-May-04 08:31N 53°34' E 009°46'4 7.4
2017-May-04 08:01N 53°34' E 009°40'4 7.7
2017-May-04 07:30N 53°36' E 009°34'4 8.2
2017-May-04 07:01N 53°40' E 009°31'4 8.9
2017-May-04 06:30N 53°44' E 009°27'4 8.6
2017-May-04 06:01N 53°47' E 009°23'4 8.7
2017-May-04 05:31N 53°51' E 009°19'4 8.9
2017-May-04 05:00N 53°53' E 009°12'2 4.0
2017-May-04 04:30N 53°54' E 009°09'1 1.2
2017-May-04 03:57N 53°54' E 009°09'0 0.0
2017-May-04 03:30N 53°54' E 009°09'0 0.0
2017-May-04 02:50N 53°54' E 009°09'0 0.0
2017-May-04 02:23N 53°54' E 009°09'0 0.0
2017-May-04 01:59N 53°54' E 009°09'0 0.0
2017-May-04 01:29N 53°54' E 009°09'0 0.0
2017-May-04 00:53N 53°54' E 009°09'0 0.0
2017-May-04 00:29N 53°54' E 009°09'0 0.0
2017-May-03 23:59N 53°54' E 009°09'0 0.0
2017-May-03 23:29N 53°54' E 009°09'0 0.0
2017-May-03 22:59N 53°54' E 009°09'0 0.0
2017-May-03 22:29N 53°54' E 009°09'0 0.0
2017-May-03 21:53N 53°54' E 009°09'0 0.0
2017-May-03 21:29N 53°54' E 009°09'0 0.0
2017-May-03 20:59N 53°54' E 009°09'0 0.0
2017-May-03 20:29N 53°54' E 009°09'0 0.0
2017-May-03 19:59N 53°54' E 009°09'0 0.0
2017-May-03 19:29N 53°54' E 009°09'0 0.0
2017-May-03 18:59N 53°54' E 009°09'0 0.0
2017-May-03 18:26N 53°54' E 009°09'0 0.0
2017-May-03 17:59N 53°54' E 009°09'0 0.0
2017-May-03 17:29N 53°54' E 009°09'0 0.0
2017-May-03 16:53N 53°54' E 009°09'0 0.0
2017-May-03 16:26N 53°54' E 009°09'0 0.0
2017-May-03 15:56N 53°54' E 009°09'0 0.5
2017-May-03 15:30N 53°54' E 009°10'3 6.5
2017-May-03 15:00N 53°57' E 009°14'7 6.8
2017-May-03 14:00N 54°03' E 009°18'48 0.9
2017-May-01 10:16N 54°31' E 010°24'3 8.4
2017-May-01 09:57N 54°34' E 010°27'4 8.6
2017-May-01 09:30N 54°37' E 010°30'4 8.4
2017-May-01 09:00N 54°41' E 010°33'4 8.3
2017-May-01 08:30N 54°44' E 010°38'2 3.9
2017-May-01 08:00N 54°45' E 010°40'0 0.0
2017-May-01 07:31N 54°45' E 010°40'0 0.0
2017-May-01 07:00N 54°45' E 010°40'0 0.0
2017-May-01 06:30N 54°45' E 010°40'0 0.0
2017-May-01 06:01N 54°45' E 010°40'0 0.0
2017-May-01 05:31N 54°45' E 010°40'0 0.0
2017-May-01 05:01N 54°45' E 010°40'0 0.0
2017-May-01 04:30N 54°45' E 010°40'0 0.0
2017-May-01 04:00N 54°45' E 010°40'0 0.0
2017-May-01 03:31N 54°45' E 010°40'0 0.0
2017-May-01 03:00N 54°45' E 010°40'0 0.0
2017-May-01 02:30N 54°45' E 010°40'0 0.0
2017-May-01 02:00N 54°45' E 010°40'0 0.0
2017-May-01 01:30N 54°45' E 010°40'0 0.0
2017-May-01 01:00N 54°45' E 010°40'0 0.0
2017-May-01 00:31N 54°45' E 010°40'0 0.0
2017-May-01 00:00N 54°45' E 010°40'0 0.0
2017-Apr-30 23:30N 54°45' E 010°40'0 0.0
2017-Apr-30 23:01N 54°45' E 010°40'0 0.0
2017-Apr-30 22:31N 54°45' E 010°40'0 0.0
2017-Apr-30 22:01N 54°45' E 010°40'0 0.0
2017-Apr-30 21:31N 54°45' E 010°40'0 0.0
2017-Apr-30 21:00N 54°45' E 010°40'0 0.0
2017-Apr-30 20:30N 54°45' E 010°40'0 0.0
2017-Apr-30 20:01N 54°45' E 010°40'0 0.0
2017-Apr-30 19:30N 54°45' E 010°40'0 0.0
2017-Apr-30 19:00N 54°45' E 010°40'0 0.0
2017-Apr-30 18:30N 54°45' E 010°40'0 0.0
2017-Apr-30 18:00N 54°45' E 010°40'0 0.0
2017-Apr-30 17:30N 54°45' E 010°40'0 0.0
2017-Apr-30 17:00N 54°45' E 010°40'0 0.0
2017-Apr-30 16:30N 54°45' E 010°40'0 0.0
2017-Apr-30 16:00N 54°45' E 010°40'0 0.0
2017-Apr-30 15:30N 54°45' E 010°40'0 0.0
2017-Apr-30 15:01N 54°45' E 010°40'0 0.0
2017-Apr-30 14:31N 54°45' E 010°40'0 0.0
2017-Apr-30 13:30N 54°45' E 010°40'0 0.0
2017-Apr-30 13:01N 54°45' E 010°40'1 1.1
2017-Apr-30 12:31N 54°46' E 010°40'3 5.3
2017-Apr-30 12:01N 54°43' E 010°40'4 7.7
2017-Apr-30 11:31N 54°40' E 010°43'4 8.2
2017-Apr-30 11:01N 54°36' E 010°47'3 6.4
2017-Apr-30 10:31N 54°33' E 010°49'3 5.8
2017-Apr-30 10:00N 54°31' E 010°52'3 5.5
2017-Apr-30 09:30N 54°29' E 010°55'3 5.9
2017-Apr-30 09:00N 54°26' E 010°58'3 6.0
2017-Apr-30 08:30N 54°24' E 011°01'1 2.9
2017-Apr-30 08:00N 54°22' E 011°01'1 1.8
2017-Apr-30 07:30N 54°22' E 010°59'0 0.0
2017-Apr-30 07:00N 54°22' E 010°59'0 0.0
2017-Apr-30 06:30N 54°22' E 010°59'0 0.0
2017-Apr-30 06:00N 54°22' E 010°59'0 0.0
2017-Apr-30 05:31N 54°22' E 010°59'0 0.0
2017-Apr-30 04:55N 54°22' E 010°59'0 0.0
2017-Apr-30 04:26N 54°22' E 010°59'0 0.0
2017-Apr-30 03:59N 54°22' E 010°59'0 0.0
2017-Apr-30 03:29N 54°22' E 010°59'0 0.0
2017-Apr-30 03:00N 54°22' E 010°59'0 0.0
2017-Apr-30 02:26N 54°22' E 010°59'0 0.0
2017-Apr-30 02:01N 54°22' E 010°59'0 0.0
2017-Apr-30 01:29N 54°22' E 010°59'0 0.0
2017-Apr-30 01:00N 54°22' E 010°59'0 0.0
2017-Apr-30 00:31N 54°22' E 010°59'0 0.0
2017-Apr-29 23:59N 54°22' E 010°59'0 0.0
2017-Apr-29 23:30N 54°22' E 010°59'0 0.0
2017-Apr-29 22:59N 54°22' E 010°59'0 0.0
2017-Apr-29 22:17N 54°22' E 010°59'0 0.0
2017-Apr-29 21:54N 54°22' E 010°59'0 0.0
2017-Apr-29 21:30N 54°22' E 010°59'0 0.0
2017-Apr-29 19:45N 54°22' E 010°59'0 0.0
2017-Apr-29 19:28N 54°22' E 010°59'0 0.0
2017-Apr-29 18:52N 54°22' E 010°59'0 0.0
2017-Apr-29 18:30N 54°22' E 010°59'0 0.0
2017-Apr-29 18:00N 54°22' E 010°59'0 0.0
2017-Apr-29 17:28N 54°22' E 010°59'0 0.0
2017-Apr-29 16:44N 54°22' E 010°59'0 0.0
2017-Apr-29 16:11N 54°22' E 010°59'0 0.1
2017-Apr-29 15:58N 54°22' E 010°59'2 3.6
2017-Apr-29 15:30N 54°23' E 011°02'3 6.5
2017-Apr-29 14:59N 54°25' E 010°57'3 6.5
2017-Apr-29 14:30N 54°26' E 010°52'7 6.5
2017-Apr-29 13:22N 54°27' E 010°39'  

Dump ship's entire track history